Time;durP1;ratioP1;P1;durP2;ratioP2;P2;SDS_P1;SDS_P2;PMS_P1;PMS_P2;Temp;Humidity;BMP_temperature;BMP_pressure;BME280_temperature;BME280_humidity;BME280_pressure;Samples;Min_cycle;Max_cycle;Signal;HPM_P1;HPM_P2
2023/03/11 00:01:27;;;;;;;0.70;0.70;;;17.20;62.70;;;;;;4971882;28;45690;-72
2023/03/11 00:03:55;;;;;;;0.60;0.60;;;17.20;62.90;;;;;;4989186;28;44011;-72
2023/03/11 00:06:23;;;;;;;0.53;0.53;;;17.20;62.90;;;;;;4989344;28;43759;-72
2023/03/11 00:08:51;;;;;;;0.50;0.50;;;17.20;63.00;;;;;;4989382;28;43496;-72
2023/03/11 00:11:21;;;;;;;0.60;0.60;;;17.10;63.00;;;;;;4989355;28;43945;-72
2023/03/11 00:13:49;;;;;;;0.70;0.70;;;17.10;63.20;;;;;;4977193;28;46142;-72
2023/03/11 00:16:17;;;;;;;0.50;0.50;;;17.20;62.90;;;;;;4989138;28;44019;-72
2023/03/11 00:18:45;;;;;;;0.60;0.60;;;17.20;62.60;;;;;;4970272;28;43363;-73
2023/03/11 00:21:15;;;;;;;0.70;0.70;;;17.30;62.50;;;;;;4971160;28;46225;-72
2023/03/11 00:23:43;;;;;;;0.63;0.63;;;17.30;62.60;;;;;;4988924;28;43458;-72
2023/03/11 00:26:11;;;;;;;0.70;0.70;;;17.20;62.60;;;;;;4971082;28;43509;-72
2023/03/11 00:28:40;;;;;;;0.60;0.60;;;17.20;62.90;;;;;;4989244;28;43421;-73
2023/03/11 00:31:11;;;;;;;0.60;0.60;;;17.20;62.80;;;;;;4971544;28;45680;-73
2023/03/11 00:33:39;;;;;;;0.40;0.40;;;17.20;62.80;;;;;;4988310;28;43479;-71
2023/03/11 00:36:07;;;;;;;0.70;0.70;;;17.20;62.90;;;;;;4988399;28;43526;-73
2023/03/11 00:38:35;;;;;;;0.70;0.70;;;17.20;62.90;;;;;;4976146;28;43896;-73
2023/03/11 00:41:03;;;;;;;0.50;0.50;;;17.10;62.90;;;;;;4989181;28;43916;-72
2023/03/11 00:43:31;;;;;;;0.60;0.60;;;17.10;63.00;;;;;;4988293;28;43407;-73
2023/03/11 00:46:01;;;;;;;0.50;0.50;;;17.10;63.00;;;;;;4988525;28;43433;-72
2023/03/11 00:48:29;;;;;;;0.70;0.70;;;17.10;62.80;;;;;;4989086;28;43359;-73
2023/03/11 00:50:57;;;;;;;0.63;0.63;;;17.10;62.90;;;;;;4971116;28;45549;-73
2023/03/11 00:53:25;;;;;;;0.70;0.70;;;17.10;63.00;;;;;;4969894;28;44733;-73
2023/03/11 00:55:52;;;;;;;0.70;0.70;;;17.10;63.00;;;;;;4970655;28;43514;-73
2023/03/11 00:58:21;;;;;;;0.70;0.70;;;17.10;63.00;;;;;;4970966;28;43534;-72
2023/03/11 01:00:54;;;;;;;0.60;0.60;;;17.10;63.20;;;;;;4971251;28;45022;-72
2023/03/11 01:03:23;;;;;;;0.67;0.67;;;17.10;63.10;;;;;;4971205;28;44969;-71
2023/03/11 01:05:51;;;;;;;0.70;0.70;;;17.20;62.80;;;;;;4971021;28;44031;-72
2023/03/11 01:08:19;;;;;;;0.70;0.70;;;17.30;62.40;;;;;;4988566;28;43618;-72
2023/03/11 01:10:47;;;;;;;0.60;0.60;;;17.30;62.10;;;;;;4970771;28;44061;-73
2023/03/11 01:13:17;;;;;;;0.53;0.53;;;17.30;62.20;;;;;;4987961;28;44003;-73
2023/03/11 01:15:45;;;;;;;0.70;0.70;;;17.30;62.40;;;;;;4964487;28;44043;-72
2023/03/11 01:18:14;;;;;;;0.53;0.53;;;17.30;62.60;;;;;;4963636;28;43515;-72
2023/03/11 01:20:43;;;;;;;0.70;0.70;;;17.20;62.40;;;;;;4987836;28;44796;-71
2023/03/11 01:23:11;;;;;;;0.80;0.80;;;17.20;62.50;;;;;;4969061;28;44696;-73
2023/03/11 01:25:39;;;;;;;0.70;0.70;;;17.20;62.60;;;;;;4988004;28;43334;-72
2023/03/11 01:28:07;;;;;;;0.70;0.70;;;17.20;62.80;;;;;;4988133;28;43505;-72
2023/03/11 01:30:36;;;;;;;0.80;0.80;;;17.10;62.80;;;;;;4969584;28;45290;-72
2023/03/11 01:33:04;;;;;;;0.80;0.80;;;17.10;63.00;;;;;;4970392;28;43811;-72
2023/03/11 01:35:34;;;;;;;0.70;0.70;;;17.10;62.70;;;;;;4987548;28;43460;-72
2023/03/11 01:38:03;;;;;;;0.63;0.63;;;17.10;62.80;;;;;;4965881;28;43439;-73
2023/03/11 01:40:34;;;;;;;0.60;0.60;;;17.10;62.90;;;;;;4967804;28;46220;-72
2023/03/11 01:43:07;;;;;;;0.70;0.70;;;17.10;63.00;;;;;;4969738;28;43708;-73
2023/03/11 01:45:42;;;;;;;0.80;0.80;;;17.10;63.00;;;;;;4969597;28;43315;-72
2023/03/11 01:48:12;;;;;;;0.80;0.80;;;17.10;63.20;;;;;;4975431;28;43401;-72
2023/03/11 01:50:43;;;;;;;0.60;0.60;;;17.10;63.00;;;;;;4970181;28;43827;-73
2023/03/11 01:53:12;;;;;;;0.70;0.70;;;17.10;62.90;;;;;;4969723;28;45005;-71
2023/03/11 01:55:43;;;;;;;0.90;0.90;;;17.10;63.00;;;;;;4969020;28;43463;-72
2023/03/11 01:58:12;;;;;;;0.60;0.60;;;17.10;63.00;;;;;;4970277;28;43379;-72
2023/03/11 02:00:40;;;;;;;0.70;0.70;;;17.00;62.90;;;;;;4969822;28;43867;-72
2023/03/11 02:03:09;;;;;;;0.90;0.90;;;17.00;63.00;;;;;;4987286;28;43911;-72
2023/03/11 02:05:38;;;;;;;0.63;0.63;;;17.00;63.10;;;;;;4968912;28;43419;-72
2023/03/11 02:08:06;;;;;;;0.60;0.60;;;17.20;62.90;;;;;;4987582;28;43465;-72
2023/03/11 02:10:37;;;;;;;0.60;0.60;;;17.30;62.50;;;;;;4970416;28;46143;-72
2023/03/11 02:13:05;;;;;;;0.70;0.70;;;17.30;62.20;;;;;;4969959;28;44450;-72
2023/03/11 02:15:33;;;;;;;0.80;0.80;;;17.40;61.90;;;;;;4970703;28;43479;-72
2023/03/11 02:18:02;;;;;;;0.70;0.70;;;17.30;61.90;;;;;;4968768;28;43961;-73
2023/03/11 02:20:36;;;;;;;0.60;0.60;;;17.30;62.20;;;;;;4968849;28;45707;-72
2023/03/11 02:23:09;;;;;;;0.80;0.80;;;17.30;62.20;;;;;;4969236;28;44996;-71
2023/03/11 02:25:41;;;;;;;0.70;0.70;;;17.20;62.10;;;;;;4963964;28;43387;-73
2023/03/11 02:28:12;;;;;;;0.60;0.60;;;17.20;62.30;;;;;;4971875;28;43704;-71
2023/03/11 02:30:41;;;;;;;0.60;0.60;;;17.20;62.50;;;;;;4970469;28;46219;-72
2023/03/11 02:33:10;;;;;;;0.70;0.70;;;17.10;62.60;;;;;;4973304;28;43484;-72
2023/03/11 02:35:38;;;;;;;0.73;0.73;;;17.10;62.70;;;;;;4969083;28;43411;-72
2023/03/11 02:38:06;;;;;;;0.57;0.57;;;17.10;62.70;;;;;;4970742;28;44131;-72
2023/03/11 02:40:50;;;;;;;0.67;0.67;;;17.10;62.60;;;;;;4969574;28;45826;-72
2023/03/11 02:43:23;;;;;;;0.80;0.80;;;17.10;62.70;;;;;;4969069;28;44578;-71
2023/03/11 02:45:51;;;;;;;0.80;0.80;;;17.10;62.80;;;;;;4986702;28;43709;-73
2023/03/11 02:48:20;;;;;;;0.77;0.77;;;17.10;62.90;;;;;;4969808;28;43405;-72
2023/03/11 02:50:48;;;;;;;0.87;0.87;;;17.00;62.90;;;;;;4967131;28;45779;-72
2023/03/11 02:53:18;;;;;;;0.80;0.80;;;17.00;63.00;;;;;;4968917;28;43870;-73
2023/03/11 02:55:47;;;;;;;0.90;0.90;;;17.10;62.80;;;;;;4969301;28;43394;-72
2023/03/11 02:58:15;;;;;;;0.80;0.80;;;17.20;62.40;;;;;;4987095;28;43437;-73
2023/03/11 03:00:44;;;;;;;0.80;0.80;;;17.30;62.20;;;;;;4986306;28;43987;-73
2023/03/11 03:03:12;;;;;;;0.63;0.63;;;17.30;62.20;;;;;;4968639;28;44572;-73
2023/03/11 03:05:40;;;;;;;0.77;0.77;;;17.20;62.40;;;;;;4986311;28;43524;-73
2023/03/11 03:08:09;;;;;;;0.80;0.80;;;17.20;62.50;;;;;;4969274;28;43518;-71
2023/03/11 03:10:36;;;;;;;0.70;0.70;;;17.20;62.30;;;;;;4967655;28;46404;-73
2023/03/11 03:13:04;;;;;;;0.70;0.70;;;17.20;62.30;;;;;;4968746;28;44468;-72
2023/03/11 03:15:32;;;;;;;0.70;0.70;;;17.10;62.50;;;;;;4986514;28;43489;-72
2023/03/11 03:18:02;;;;;;;0.60;0.60;;;17.10;62.60;;;;;;4970705;28;43443;-72
2023/03/11 03:20:30;;;;;;;0.83;0.83;;;17.10;62.70;;;;;;4972494;28;46176;-72
2023/03/11 03:23:00;;;;;;;0.80;0.80;;;17.00;62.80;;;;;;4971815;28;44322;-72
2023/03/11 03:25:31;;;;;;;0.93;0.77;;;17.10;62.70;;;;;;4972454;28;43460;-72
2023/03/11 03:28:03;;;;;;;0.73;0.73;;;17.00;62.70;;;;;;4974771;28;43445;-72
2023/03/11 03:30:34;;;;;;;0.70;0.70;;;17.00;62.70;;;;;;4968686;28;44084;-72
2023/03/11 03:33:03;;;;;;;0.50;0.50;;;17.00;62.80;;;;;;4983457;28;43419;-72
2023/03/11 03:35:31;;;;;;;0.70;0.70;;;17.00;62.90;;;;;;4972418;28;43422;-73
2023/03/11 03:38:07;;;;;;;0.77;0.77;;;17.00;63.00;;;;;;4973372;28;43952;-73
2023/03/11 03:40:35;;;;;;;0.90;0.90;;;17.00;62.90;;;;;;4971861;28;45593;-72
2023/03/11 03:43:07;;;;;;;0.70;0.70;;;17.10;62.60;;;;;;4971661;28;43381;-72
2023/03/11 03:45:37;;;;;;;0.70;0.70;;;17.20;62.30;;;;;;4972029;28;43340;-73
2023/03/11 03:48:07;;;;;;;0.70;0.70;;;17.20;62.10;;;;;;4972106;28;43477;-73
2023/03/11 03:50:40;;;;;;;0.70;0.70;;;17.20;62.30;;;;;;4971808;28;45874;-73
2023/03/11 03:53:11;;;;;;;0.70;0.70;;;17.10;62.30;;;;;;4971709;28;43883;-73
2023/03/11 03:55:39;;;;;;;0.50;0.50;;;17.10;62.40;;;;;;4972143;28;43479;-73
2023/03/11 03:58:08;;;;;;;0.70;0.70;;;17.10;62.40;;;;;;4972292;28;43422;-72
2023/03/11 04:00:36;;;;;;;0.80;0.80;;;17.10;62.40;;;;;;4971745;28;46040;-73
2023/03/11 04:03:04;;;;;;;0.80;0.80;;;17.10;62.60;;;;;;4989300;28;43934;-71
2023/03/11 04:05:44;;;;;;;0.80;0.80;;;17.10;62.70;;;;;;4971679;28;43423;-73
2023/03/11 04:08:13;;;;;;;1.00;1.00;;;17.00;62.70;;;;;;4972197;28;43607;-72
2023/03/11 04:10:42;;;;;;;0.90;0.90;;;17.00;62.90;;;;;;4970947;28;46095;-72
2023/03/11 04:13:10;;;;;;;0.70;0.70;;;17.00;62.90;;;;;;4973137;28;43442;-72
2023/03/11 04:15:38;;;;;;;0.70;0.70;;;17.00;62.80;;;;;;4972336;28;43346;-72
2023/03/11 04:18:06;;;;;;;0.80;0.80;;;17.00;62.80;;;;;;4966860;28;43585;-72
2023/03/11 04:20:34;;;;;;;0.70;0.70;;;17.00;62.90;;;;;;4971332;28;45776;-72
2023/03/11 04:23:03;;;;;;;0.90;0.90;;;16.90;62.90;;;;;;4973869;28;44798;-72
2023/03/11 04:25:33;;;;;;;0.80;0.80;;;16.90;63.00;;;;;;4971594;28;43506;-73
2023/03/11 04:28:01;;;;;;;0.73;0.73;;;17.00;63.00;;;;;;4970607;28;43829;-73
2023/03/11 04:30:30;;;;;;;0.70;0.70;;;17.10;62.60;;;;;;4970871;28;45743;-72
2023/03/11 04:32:58;;;;;;;0.60;0.60;;;17.20;62.30;;;;;;4971282;28;44455;-73
2023/03/11 04:35:26;;;;;;;0.63;0.63;;;17.20;62.20;;;;;;4971393;28;43418;-72
2023/03/11 04:37:54;;;;;;;0.70;0.70;;;17.10;62.30;;;;;;4965529;28;43581;-72
2023/03/11 04:40:26;;;;;;;0.70;0.70;;;17.10;62.40;;;;;;4965086;28;45611;-73
2023/03/11 04:42:54;;;;;;;1.00;1.00;;;17.10;62.60;;;;;;4974898;28;44764;-73
2023/03/11 04:45:22;;;;;;;0.70;0.70;;;17.10;62.40;;;;;;4971010;28;43408;-72
2023/03/11 04:47:53;;;;;;;0.70;0.70;;;17.10;62.50;;;;;;4971402;28;44049;-72
2023/03/11 04:50:21;;;;;;;0.77;0.77;;;17.00;62.50;;;;;;4970933;28;45902;-72
2023/03/11 04:52:49;;;;;;;0.63;0.63;;;17.00;62.50;;;;;;4970683;28;45075;-71
2023/03/11 04:55:17;;;;;;;0.73;0.73;;;17.00;62.70;;;;;;4971150;28;43836;-71
2023/03/11 04:57:47;;;;;;;0.70;0.70;;;17.00;62.90;;;;;;4970721;28;43465;-73
2023/03/11 05:00:21;;;;;;;0.60;0.60;;;17.00;62.50;;;;;;4970396;28;45490;-72
2023/03/11 05:02:50;;;;;;;0.70;0.70;;;17.00;62.60;;;;;;4967393;28;44721;-72
2023/03/11 05:05:19;;;;;;;0.80;0.80;;;17.00;62.70;;;;;;4970895;28;43406;-72
2023/03/11 05:07:47;;;;;;;0.77;0.77;;;17.00;63.40;;;;;;4988531;28;43336;-73
2023/03/11 05:10:21;;;;;;;0.90;0.90;;;17.00;62.70;;;;;;4970972;28;44765;-73
2023/03/11 05:12:54;;;;;;;0.70;0.70;;;16.90;62.80;;;;;;4969982;28;43557;-73
2023/03/11 05:15:24;;;;;;;0.70;0.70;;;17.00;62.80;;;;;;4973017;28;43519;-73
2023/03/11 05:17:52;;;;;;;1.00;1.00;;;17.10;62.40;;;;;;4967385;28;43610;-73
2023/03/11 05:20:20;;;;;;;0.90;0.90;;;17.20;62.00;;;;;;4988240;28;43971;-72
2023/03/11 05:22:48;;;;;;;0.70;0.70;;;17.20;61.60;;;;;;4987871;28;43553;-72
2023/03/11 05:25:16;;;;;;;0.70;0.70;;;17.20;61.90;;;;;;4987608;28;43870;-72
2023/03/11 05:27:45;;;;;;;0.80;0.80;;;17.20;62.00;;;;;;4970261;28;43441;-73
2023/03/11 05:30:18;;;;;;;0.73;0.73;;;17.20;62.20;;;;;;4972757;28;43846;-73
2023/03/11 05:32:48;;;;;;;0.90;0.90;;;17.10;62.00;;;;;;4988090;28;43446;-72
2023/03/11 05:35:17;;;;;;;0.80;0.80;;;17.10;62.00;;;;;;4970478;28;43463;-72
2023/03/11 05:37:48;;;;;;;0.77;0.77;;;17.10;62.30;;;;;;4975254;28;43468;-73
2023/03/11 05:40:18;;;;;;;1.03;1.03;;;17.10;62.40;;;;;;4969517;28;44078;-72
2023/03/11 05:42:46;;;;;;;0.97;0.97;;;17.00;62.40;;;;;;4987740;28;43381;-72
2023/03/11 05:45:15;;;;;;;0.80;0.80;;;17.00;62.50;;;;;;4970533;28;43468;-72
2023/03/11 05:47:47;;;;;;;0.80;0.80;;;17.00;62.40;;;;;;4970481;28;43417;-71
2023/03/11 05:50:17;;;;;;;0.67;0.67;;;17.00;62.50;;;;;;4963750;28;45852;-72
2023/03/11 05:52:46;;;;;;;0.90;0.90;;;17.00;62.60;;;;;;4963969;28;43459;-72
2023/03/11 05:55:15;;;;;;;0.70;0.70;;;17.00;62.60;;;;;;4969710;28;43477;-72
2023/03/11 05:57:45;;;;;;;0.90;0.90;;;16.90;62.60;;;;;;4973944;28;43414;-72
2023/03/11 06:00:14;;;;;;;0.70;0.70;;;16.90;62.80;;;;;;4987523;28;43594;-72
2023/03/11 06:02:48;;;;;;;0.80;0.80;;;17.00;62.80;;;;;;4969794;28;43519;-73
2023/03/11 06:05:18;;;;;;;0.73;0.73;;;17.10;62.40;;;;;;4969967;28;43418;-72
2023/03/11 06:07:48;;;;;;;0.70;0.70;;;17.10;62.10;;;;;;4970245;28;43602;-73
2023/03/11 06:10:17;;;;;;;0.73;0.73;;;17.10;62.30;;;;;;4970302;28;43828;-72
2023/03/11 06:12:46;;;;;;;0.70;0.70;;;17.00;62.40;;;;;;4969582;28;44467;-72
2023/03/11 06:15:20;;;;;;;0.70;0.70;;;17.00;62.50;;;;;;4972586;28;43441;-72
2023/03/11 06:17:50;;;;;;;0.60;0.60;;;17.00;62.50;;;;;;4965732;28;43435;-72
2023/03/11 06:20:18;;;;;;;0.70;0.70;;;17.00;62.40;;;;;;4969393;28;45736;-72
2023/03/11 06:22:48;;;;;;;0.90;0.90;;;17.00;62.60;;;;;;4969795;28;43425;-72
2023/03/11 06:25:16;;;;;;;0.80;0.80;;;16.90;62.50;;;;;;4969485;28;43485;-71
2023/03/11 06:27:49;;;;;;;1.00;1.00;;;16.90;62.60;;;;;;4970232;28;43566;-73
2023/03/11 06:30:18;;;;;;;0.77;0.77;;;16.90;63.10;;;;;;4968751;28;45737;-72
2023/03/11 06:32:55;;;;;;;0.93;0.93;;;16.90;62.90;;;;;;4969750;28;43693;-72
2023/03/11 06:35:23;;;;;;;0.53;0.53;;;17.00;62.60;;;;;;4973075;28;44030;-72
2023/03/11 06:37:51;;;;;;;0.87;0.87;;;17.10;62.30;;;;;;4987195;28;43605;-72
2023/03/11 06:40:19;;;;;;;0.80;0.80;;;17.10;61.90;;;;;;4969133;28;45527;-72
2023/03/11 06:42:47;;;;;;;0.80;0.80;;;17.10;62.10;;;;;;4986309;28;43984;-72
2023/03/11 06:45:17;;;;;;;0.90;0.90;;;17.10;62.30;;;;;;4969398;28;43480;-72
2023/03/11 06:47:48;;;;;;;1.10;1.10;;;17.00;62.30;;;;;;4975363;28;43459;-73
2023/03/11 06:50:17;;;;;;;1.10;1.10;;;17.00;62.10;;;;;;4964521;28;45347;-73
2023/03/11 06:52:46;;;;;;;0.70;0.70;;;17.00;62.20;;;;;;4969395;28;43434;-72
2023/03/11 06:55:14;;;;;;;1.00;1.00;;;17.00;62.30;;;;;;4969675;28;43905;-71
2023/03/11 06:57:43;;;;;;;0.90;0.90;;;17.00;62.30;;;;;;4969829;28;43404;-73
2023/03/11 07:00:13;;;;;;;0.90;0.90;;;17.00;62.40;;;;;;4965818;28;43919;-73
2023/03/11 07:02:46;;;;;;;0.80;0.80;;;16.90;62.40;;;;;;4968261;28;44195;-73
2023/03/11 07:05:17;;;;;;;0.80;0.80;;;17.00;62.40;;;;;;4969502;28;43399;-72
2023/03/11 07:07:45;;;;;;;0.70;0.70;;;17.00;62.40;;;;;;4969695;28;43448;-72
2023/03/11 07:10:14;;;;;;;0.80;0.80;;;17.00;62.50;;;;;;4967933;28;44699;-72
2023/03/11 07:12:42;;;;;;;1.00;1.00;;;16.90;62.40;;;;;;4968862;28;43442;-73
2023/03/11 07:15:11;;;;;;;0.90;0.90;;;16.90;62.70;;;;;;4986450;28;43464;-72
2023/03/11 07:17:40;;;;;;;0.90;0.90;;;16.90;62.50;;;;;;4964869;28;43452;-72
2023/03/11 07:20:10;;;;;;;1.10;1.10;;;16.90;62.70;;;;;;4968792;28;44175;-72
2023/03/11 07:22:39;;;;;;;1.10;1.10;;;17.00;62.50;;;;;;4986083;28;43409;-73
2023/03/11 07:25:08;;;;;;;1.00;1.00;;;17.10;62.20;;;;;;4968861;28;44039;-72
2023/03/11 07:27:35;;;;;;;0.90;0.90;;;17.10;62.00;;;;;;4986744;28;43461;-72
2023/03/11 07:30:04;;;;;;;0.90;0.90;;;17.10;62.10;;;;;;4986143;28;43902;-71
2023/03/11 07:32:32;;;;;;;1.00;1.00;;;17.00;62.20;;;;;;4968659;28;45331;-72
2023/03/11 07:35:00;;;;;;;0.93;0.93;;;17.00;62.30;;;;;;4986254;28;43374;-72
2023/03/11 07:37:28;;;;;;;1.00;1.00;;;17.00;62.20;;;;;;4987105;28;43418;-72
2023/03/11 07:39:57;;;;;;;1.00;1.00;;;17.00;62.30;;;;;;4986047;28;43947;-72
2023/03/11 07:42:25;;;;;;;1.00;1.00;;;17.00;62.40;;;;;;4986282;28;43415;-72
2023/03/11 07:44:54;;;;;;;0.90;0.90;;;16.90;62.50;;;;;;4968835;28;43422;-72
2023/03/11 07:47:23;;;;;;;1.00;1.00;;;16.90;62.50;;;;;;4969178;28;43641;-71
2023/03/11 07:49:51;;;;;;;0.90;0.90;;;16.90;62.60;;;;;;4983183;28;43931;-73
2023/03/11 07:52:19;;;;;;;0.93;0.93;;;16.90;62.70;;;;;;4986112;28;43383;-72
2023/03/11 07:54:47;;;;;;;0.87;0.87;;;16.80;62.70;;;;;;4966025;28;43394;-72
2023/03/11 07:57:16;;;;;;;1.00;1.00;;;16.80;62.70;;;;;;4972513;28;43413;-72
2023/03/11 07:59:44;;;;;;;0.90;0.90;;;16.80;62.80;;;;;;4969776;28;44120;-73
2023/03/11 08:02:12;;;;;;;1.00;1.00;;;16.80;62.90;;;;;;4976071;28;43370;-72
2023/03/11 08:04:40;;;;;;;1.00;1.00;;;16.90;62.70;;;;;;4976218;28;43481;-72
2023/03/11 08:07:08;;;;;;;1.00;1.00;;;17.00;62.40;;;;;;4969085;28;43925;-72
2023/03/11 08:09:36;;;;;;;1.10;1.00;;;17.20;62.10;;;;;;4968992;28;46066;-72
2023/03/11 08:12:04;;;;;;;0.80;0.80;;;17.30;61.60;;;;;;4976248;28;43418;-72
2023/03/11 08:14:34;;;;;;;1.10;1.10;;;17.50;61.30;;;;;;4972267;28;43990;-72
2023/03/11 08:17:02;;;;;;;1.00;1.00;;;17.60;60.80;;;;;;4969865;28;43500;-72
2023/03/11 08:19:30;;;;;;;1.00;1.00;;;17.80;60.50;;;;;;4969038;28;44126;-72
2023/03/11 08:21:58;;;;;;;0.87;0.87;;;17.90;60.00;;;;;;4975302;28;43433;-72
2023/03/11 08:24:26;;;;;;;0.90;0.90;;;18.00;59.90;;;;;;4974708;28;43373;-72
2023/03/11 08:26:54;;;;;;;0.80;0.80;;;18.00;59.60;;;;;;4972101;28;43403;-72
2023/03/11 08:29:22;;;;;;;1.13;1.13;;;18.10;59.50;;;;;;4969144;28;46163;-72
2023/03/11 08:31:51;;;;;;;0.90;0.90;;;18.10;59.30;;;;;;4974716;28;44506;-73
2023/03/11 08:34:20;;;;;;;1.00;1.00;;;18.10;59.50;;;;;;4975814;28;43527;-71
2023/03/11 08:36:48;;;;;;;0.87;0.87;;;18.00;59.60;;;;;;4975470;28;43305;-72
2023/03/11 08:39:16;;;;;;;0.90;0.90;;;17.80;59.80;;;;;;4970986;28;43860;-73
2023/03/11 08:41:43;;;;;;;0.80;0.80;;;17.60;60.10;;;;;;4966339;28;44318;-72
2023/03/11 08:44:11;;;;;;;0.90;0.90;;;17.50;60.80;;;;;;4967912;28;44084;-72
2023/03/11 08:46:39;;;;;;;0.87;0.87;;;17.50;60.90;;;;;;4978306;28;43549;-72
2023/03/11 08:49:09;;;;;;;0.83;0.83;;;17.40;60.90;;;;;;4974559;28;43825;-73
2023/03/11 08:51:37;;;;;;;0.80;0.80;;;17.30;61.10;;;;;;4970939;28;43458;-72
2023/03/11 08:54:05;;;;;;;0.80;0.80;;;17.30;61.30;;;;;;4983060;28;44024;-73
2023/03/11 08:56:33;;;;;;;0.70;0.70;;;17.20;61.60;;;;;;4986935;28;44702;-72
2023/03/11 08:59:01;;;;;;;0.80;0.80;;;17.10;61.90;;;;;;4988448;28;43951;-71
2023/03/11 09:01:29;;;;;;;0.97;0.97;;;17.10;61.80;;;;;;4988404;28;43478;-71
2023/03/11 09:03:57;;;;;;;0.70;0.70;;;17.10;62.00;;;;;;4988824;28;43303;-73
2023/03/11 09:06:29;;;;;;;0.73;0.73;;;17.10;62.00;;;;;;4989168;28;43930;-72
2023/03/11 09:08:57;;;;;;;0.73;0.73;;;17.00;62.00;;;;;;4988469;28;43872;-72
2023/03/11 09:11:25;;;;;;;0.77;0.77;;;17.00;62.20;;;;;;4988131;28;43475;-72
2023/03/11 09:13:53;;;;;;;0.93;0.93;;;17.00;62.50;;;;;;4987626;28;44066;-72
2023/03/11 09:16:22;;;;;;;0.70;0.70;;;17.10;62.40;;;;;;4970990;28;43451;-72
2023/03/11 09:18:50;;;;;;;0.90;0.90;;;17.20;62.10;;;;;;4984321;28;43630;-72
2023/03/11 09:21:18;;;;;;;1.00;1.00;;;17.20;61.60;;;;;;4972983;28;45461;-73
2023/03/11 09:23:47;;;;;;;0.90;0.90;;;17.20;61.60;;;;;;4987496;28;43429;-72
2023/03/11 09:26:15;;;;;;;0.93;0.93;;;17.20;61.70;;;;;;4989336;28;43995;-72
2023/03/11 09:28:47;;;;;;;0.70;0.70;;;17.10;62.00;;;;;;4988015;28;43597;-72
2023/03/11 09:31:15;;;;;;;1.00;1.00;;;17.10;61.80;;;;;;4969986;28;44011;-72
2023/03/11 09:33:44;;;;;;;0.87;0.87;;;17.10;61.80;;;;;;4971958;28;43336;-72
2023/03/11 09:36:12;;;;;;;0.80;0.80;;;17.10;62.00;;;;;;4998750;28;43450;-72
2023/03/11 09:38:40;;;;;;;0.80;0.80;;;17.00;62.00;;;;;;4976711;28;45510;-72
2023/03/11 09:41:14;;;;;;;0.90;0.90;;;17.00;62.20;;;;;;4998490;28;43798;-72
2023/03/11 09:43:47;;;;;;;0.90;0.90;;;17.00;62.50;;;;;;4970522;28;43577;-72
2023/03/11 09:46:36;;;;;;;0.90;0.90;;;17.00;62.30;;;;;;4978720;28;43504;-72
2023/03/11 09:49:08;;;;;;;0.80;0.80;;;17.00;62.40;;;;;;4976428;28;45315;-73
2023/03/11 09:51:37;;;;;;;0.80;0.80;;;17.00;62.40;;;;;;4991317;28;43513;-71
2023/03/11 09:54:08;;;;;;;0.90;0.90;;;16.90;62.40;;;;;;4975118;28;43458;-73
2023/03/11 09:56:38;;;;;;;0.70;0.70;;;16.90;62.50;;;;;;4976126;28;43494;-73
2023/03/11 09:59:07;;;;;;;0.83;0.83;;;16.90;62.60;;;;;;4967357;28;45661;-72
2023/03/11 10:01:36;;;;;;;1.00;1.00;;;17.00;62.50;;;;;;4964995;28;43523;-71
2023/03/11 10:04:06;;;;;;;0.83;0.80;;;17.10;62.20;;;;;;4967060;28;43428;-72
2023/03/11 10:06:34;;;;;;;0.90;0.90;;;17.20;61.70;;;;;;4966739;28;43441;-72
2023/03/11 10:09:06;;;;;;;0.90;0.90;;;17.20;61.60;;;;;;4970086;28;45539;-72
2023/03/11 10:11:45;;;;;;;1.07;1.07;;;17.10;61.50;;;;;;4967373;28;43440;-73
2023/03/11 10:14:19;;;;;;;0.73;0.73;;;17.10;62.00;;;;;;4963685;28;43393;-72
2023/03/11 10:16:53;;;;;;;0.80;0.80;;;17.10;61.70;;;;;;4967911;28;43437;-73
2023/03/11 10:19:25;;;;;;;0.80;0.80;;;17.00;61.60;;;;;;4965464;28;43855;-72
2023/03/11 10:21:57;;;;;;;0.80;0.80;;;17.00;61.50;;;;;;4967600;28;43774;-73
2023/03/11 10:24:38;;;;;;;1.00;1.00;;;17.00;61.70;;;;;;4967960;28;43479;-73
2023/03/11 10:27:09;;;;;;;0.73;0.70;;;17.00;61.60;;;;;;4966353;28;43471;-71
2023/03/11 10:29:42;;;;;;;0.90;0.90;;;16.90;62.20;;;;;;4967431;28;43955;-73
2023/03/11 10:32:13;;;;;;;0.87;0.87;;;16.90;61.70;;;;;;4964493;28;43347;-72
2023/03/11 10:34:43;;;;;;;0.70;0.70;;;16.90;61.70;;;;;;4961655;28;43445;-72
2023/03/11 10:37:12;;;;;;;1.17;1.17;;;16.90;61.90;;;;;;4966382;28;43943;-73
2023/03/11 10:39:40;;;;;;;1.00;1.00;;;16.90;61.60;;;;;;4967270;28;43955;-72
2023/03/11 10:42:12;;;;;;;1.00;1.00;;;16.90;61.80;;;;;;4966852;28;43499;-72
2023/03/11 10:44:41;;;;;;;0.90;0.90;;;16.90;62.30;;;;;;4967110;28;43777;-72
2023/03/11 10:47:13;;;;;;;1.00;1.00;;;16.90;61.50;;;;;;4967558;28;43400;-72
2023/03/11 10:49:41;;;;;;;1.07;1.00;;;16.90;61.60;;;;;;4965403;28;45851;-72
2023/03/11 10:52:09;;;;;;;1.00;1.00;;;16.90;61.60;;;;;;4967490;28;43373;-73
2023/03/11 10:54:38;;;;;;;0.90;0.90;;;16.90;61.80;;;;;;4983805;28;43514;-73
2023/03/11 10:57:19;;;;;;;0.90;0.90;;;16.90;62.00;;;;;;4986926;28;43947;-71
2023/03/11 10:59:50;;;;;;;0.83;0.83;;;16.90;62.20;;;;;;4986373;28;43907;-71
2023/03/11 11:02:26;;;;;;;1.03;1.03;;;16.90;62.20;;;;;;4986581;28;43952;-72
2023/03/11 11:05:25;;;;;;;1.10;1.10;;;17.00;61.90;;;;;;4986013;28;43915;-72
2023/03/11 11:08:02;;;;;;;0.97;0.97;;;17.10;61.40;;;;;;4984077;28;43478;-72
2023/03/11 11:10:34;;;;;;;0.93;0.93;;;17.20;60.90;;;;;;4970672;28;46371;-72
2023/03/11 11:13:03;;;;;;;0.90;0.90;;;17.20;61.20;;;;;;4986417;28;44070;-72
2023/03/11 11:15:33;;;;;;;0.90;0.90;;;17.10;61.50;;;;;;4986652;28;43394;-73
2023/03/11 11:18:03;;;;;;;0.90;0.90;;;17.10;61.20;;;;;;4968364;28;43599;-72
2023/03/11 11:20:31;;;;;;;0.90;0.90;;;17.10;60.80;;;;;;4986491;28;43801;-74
2023/03/11 11:23:01;;;;;;;2.80;0.90;;;17.10;60.90;;;;;;4986359;28;43895;-72
2023/03/11 11:25:33;;;;;;;0.80;0.80;;;17.00;61.20;;;;;;4986708;28;43473;-72
2023/03/11 11:28:04;;;;;;;0.90;0.90;;;17.00;61.30;;;;;;4986461;28;43881;-71
2023/03/11 11:30:33;;;;;;;1.10;1.10;;;17.00;61.60;;;;;;4962242;28;45421;-72
2023/03/11 11:33:22;;;;;;;1.00;1.00;;;17.00;61.60;;;;;;4986190;28;43413;-72
2023/03/11 11:35:51;;;;;;;1.10;1.10;;;17.00;61.80;;;;;;4983111;28;43981;-72
2023/03/11 11:38:21;;;;;;;0.80;0.80;;;17.00;61.90;;;;;;4989333;28;43471;-73
2023/03/11 11:40:49;;;;;;;0.80;0.80;;;17.00;61.90;;;;;;4989567;28;43890;-72
2023/03/11 11:43:17;;;;;;;0.90;0.90;;;17.00;62.10;;;;;;4971611;28;44997;-72
2023/03/11 11:45:48;;;;;;;0.87;0.87;;;16.90;62.80;;;;;;4969174;28;43399;-72
2023/03/11 11:48:18;;;;;;;1.00;1.00;;;17.00;62.10;;;;;;4989952;28;43437;-72
2023/03/11 11:50:48;;;;;;;0.80;0.80;;;17.00;61.80;;;;;;4989451;28;43908;-72
2023/03/11 11:53:23;;;;;;;1.00;1.00;;;17.10;61.40;;;;;;4989115;28;44112;-72
2023/03/11 11:55:52;;;;;;;1.03;1.03;;;17.10;61.50;;;;;;4989469;28;43486;-72
2023/03/11 11:58:20;;;;;;;0.80;0.80;;;17.10;61.70;;;;;;4989262;28;43746;-72
2023/03/11 12:00:56;;;;;;;1.00;1.00;;;17.10;61.70;;;;;;4971942;28;46078;-73
2023/03/11 12:03:59;;;;;;;0.80;0.80;;;17.10;61.40;;;;;;4989567;28;43445;-72
2023/03/11 12:06:29;;;;;;;0.97;0.97;;;17.10;61.70;;;;;;4987920;28;43511;-72
2023/03/11 12:09:07;;;;;;;0.90;0.90;;;17.10;61.80;;;;;;4971894;28;43488;-72
2023/03/11 12:11:37;;;;;;;1.10;1.10;;;17.10;61.90;;;;;;4971250;28;45495;-73
2023/03/11 12:14:11;;;;;;;0.80;0.80;;;17.10;62.30;;;;;;4971111;28;44828;-72
2023/03/11 12:16:46;;;;;;;0.70;0.70;;;17.00;62.10;;;;;;4993310;28;43413;-73
2023/03/11 12:19:18;;;;;;;1.00;1.00;;;17.00;61.90;;;;;;4969512;28;43445;-73
2023/03/11 12:22:05;;;;;;;0.90;0.90;;;17.00;62.20;;;;;;4988376;28;43801;-72
2023/03/11 12:24:48;;;;;;;0.90;0.90;;;17.00;62.30;;;;;;4988652;28;43397;-72
2023/03/11 12:27:21;;;;;;;0.70;0.70;;;17.00;62.20;;;;;;4965744;28;43446;-73
2023/03/11 12:29:51;;;;;;;0.97;0.80;;;17.00;62.10;;;;;;4989325;28;43527;-73
2023/03/11 12:32:23;;;;;;;1.70;0.90;;;17.00;62.10;;;;;;4988818;28;43600;-74
2023/03/11 12:34:52;;;;;;;0.90;0.90;;;17.00;62.00;;;;;;4988850;28;43733;-71
2023/03/11 12:37:20;;;;;;;0.97;0.97;;;17.10;61.90;;;;;;4974006;28;43494;-72
2023/03/11 12:39:48;;;;;;;1.00;1.00;;;17.20;61.60;;;;;;4988882;28;43432;-72
2023/03/11 12:42:18;;;;;;;0.70;0.70;;;17.20;61.70;;;;;;4971410;28;45764;-72
2023/03/11 12:44:46;;;;;;;1.00;1.00;;;17.20;61.80;;;;;;4975031;28;45004;-73
2023/03/11 12:47:27;;;;;;;0.80;0.80;;;17.20;61.80;;;;;;4969102;28;43425;-73
2023/03/11 12:49:56;;;;;;;0.70;0.70;;;17.20;61.70;;;;;;4988460;28;43819;-72
2023/03/11 12:52:28;;;;;;;1.00;1.00;;;17.20;61.80;;;;;;4985870;28;43857;-73
2023/03/11 12:55:28;;;;;;;1.00;1.00;;;17.20;61.90;;;;;;4972177;28;45229;-72
2023/03/11 12:58:04;;;;;;;0.70;0.70;;;17.10;61.80;;;;;;4963311;28;43445;-72
2023/03/11 13:00:40;;;;;;;0.90;0.90;;;17.10;62.00;;;;;;4968550;28;43530;-73
2023/03/11 13:03:47;;;;;;;0.80;0.80;;;17.00;61.90;;;;;;4970114;28;46057;-72